Time;durP1;ratioP1;P1;durP2;ratioP2;P2;SDS_P1;SDS_P2;PMS_P1;PMS_P2;Temp;Humidity;BMP_temperature;BMP_pressure;BME280_temperature;BME280_humidity;BME280_pressure;Samples;Min_cycle;Max_cycle;Signal;HPM_P1;HPM_P2
2023/10/22 00:02:09;;;;;;;;;;;;;;;;;;5025325;28;20056;-64
2023/10/22 00:04:35;;;;;;;;;;;;;;;;;;5019998;28;20036;-63
2023/10/22 00:07:00;;;;;;;;;;;;;;;;;;5024293;28;19925;-63
2023/10/22 00:09:25;;;;;;;;;;;;;;;;;;5025793;28;20009;-63
2023/10/22 00:11:50;;;;;;;;;;;;;;;;;;5026004;28;19921;-63
2023/10/22 00:14:16;;;;;;;;;;;;;;;;;;5024546;28;19936;-63
2023/10/22 00:16:44;;;;;;;;;;;;;;;;;;5024468;28;19921;-63
2023/10/22 00:19:09;;;;;;;;;;;;;;;;;;5024859;28;19921;-63
2023/10/22 00:21:37;;;;;;;;;;;;;;;;;;5014463;28;20536;-64
2023/10/22 00:24:02;;;;;;;;;;;;;;;;;;5023941;28;20014;-64
2023/10/22 00:26:27;;;;;;;;;;;;;;;;;;5022960;28;21967;-63
2023/10/22 00:28:53;;;;;;;;;;;;;;;;;;5024337;28;19944;-63
2023/10/22 00:31:18;;;;;;;;;;;;;;;;;;5023402;28;19916;-64
2023/10/22 00:33:43;;;;;;;;;;;;;;;;;;5027170;28;19924;-64
2023/10/22 00:36:09;;;;;;;;;;;;;;;;;;5023728;28;19921;-62
2023/10/22 00:38:34;;;;;;;;;;;;;;;;;;5026832;28;20008;-62
2023/10/22 00:41:00;;;;;;;;;;;;;;;;;;5007974;28;20040;-64
2023/10/22 00:43:27;;;;;;;;;;;;;;;;;;5023005;28;19921;-63
2023/10/22 00:45:56;;;;;;;;;;;;;;;;;;5024299;28;19944;-63
2023/10/22 00:48:21;;;;;;;;;;;;;;;;;;5009914;28;19969;-63
2023/10/22 00:50:46;;;;;;;;;;;;;;;;;;5014275;28;20059;-66
2023/10/22 00:53:12;;;;;;;;;;;;;;;;;;5030470;28;19932;-62
2023/10/22 00:55:43;;;;;;;;;;;;;;;;;;5025712;28;19917;-63
2023/10/22 00:58:08;;;;;;;;;;;;;;;;;;5023191;28;19921;-63
2023/10/22 01:00:34;;;;;;;;;;;;;;;;;;5007406;28;19920;-62
2023/10/22 01:02:59;;;;;;;;;;;;;;;;;;5019021;28;20015;-62
2023/10/22 01:05:26;;;;;;;;;;;;;;;;;;5023642;28;19970;-62
2023/10/22 01:07:51;;;;;;;;;;;;;;;;;;5011675;28;19935;-61
2023/10/22 01:10:16;;;;;;;;;;;;;;;;;;5025914;28;19917;-64
2023/10/22 01:12:41;;;;;;;;;;;;;;;;;;5026042;28;19929;-62
2023/10/22 01:15:07;;;;;;;;;;;;;;;;;;5013198;28;19921;-64
2023/10/22 01:17:35;;;;;;;;;;;;;;;;;;5021139;28;20260;-62
2023/10/22 01:20:03;;;;;;;;;;;;;;;;;;5022373;28;19928;-62
2023/10/22 01:22:31;;;;;;;;;;;;;;;;;;5010672;28;19917;-63
2023/10/22 01:24:59;;;;;;;;;;;;;;;;;;5024026;28;19925;-63
2023/10/22 01:27:24;;;;;;;;;;;;;;;;;;5019805;28;20381;-65
2023/10/22 01:29:53;;;;;;;;;;;;;;;;;;5022854;28;19921;-62
2023/10/22 01:32:24;;;;;;;;;;;;;;;;;;5024325;28;20434;-66
2023/10/22 01:34:49;;;;;;;;;;;;;;;;;;5018464;28;19921;-64
2023/10/22 01:37:15;;;;;;;;;;;;;;;;;;5004139;28;19927;-64
2023/10/22 01:39:40;;;;;;;;;;;;;;;;;;5011385;28;19917;-64
2023/10/22 01:42:06;;;;;;;;;;;;;;;;;;5010275;28;20000;-64
2023/10/22 01:44:31;;;;;;;;;;;;;;;;;;5022242;28;20059;-64
2023/10/22 01:46:59;;;;;;;;;;;;;;;;;;5025048;28;19932;-64
2023/10/22 01:49:27;;;;;;;;;;;;;;;;;;5022286;28;19917;-66
2023/10/22 01:51:52;;;;;;;;;;;;;;;;;;5020005;28;20380;-64
2023/10/22 01:54:21;;;;;;;;;;;;;;;;;;5010642;28;20051;-65
2023/10/22 01:56:46;;;;;;;;;;;;;;;;;;5022983;28;19929;-63
2023/10/22 01:59:12;;;;;;;;;;;;;;;;;;5022110;28;20325;-65
2023/10/22 02:01:42;;;;;;;;;;;;;;;;;;5023432;28;19921;-67
2023/10/22 02:04:07;;;;;;;;;;;;;;;;;;5019589;28;22142;-63
2023/10/22 02:06:35;;;;;;;;;;;;;;;;;;5024488;28;19917;-62
2023/10/22 02:09:01;;;;;;;;;;;;;;;;;;5025586;28;20663;-63
2023/10/22 02:11:26;;;;;;;;;;;;;;;;;;5021940;28;19920;-64
2023/10/22 02:13:52;;;;;;;;;;;;;;;;;;5021721;28;20732;-64
2023/10/22 02:16:20;;;;;;;;;;;;;;;;;;5021678;28;19921;-64
2023/10/22 02:18:48;;;;;;;;;;;;;;;;;;5031051;28;20579;-64
2023/10/22 02:21:17;;;;;;;;;;;;;;;;;;5026001;28;19982;-63
2023/10/22 02:23:42;;;;;;;;;;;;;;;;;;5025658;28;20348;-62
2023/10/22 02:26:07;;;;;;;;;;;;;;;;;;5007751;28;19922;-63
2023/10/22 02:28:33;;;;;;;;;;;;;;;;;;5028855;28;19935;-63
2023/10/22 02:30:58;;;;;;;;;;;;;;;;;;5024325;28;19924;-62
2023/10/22 02:33:26;;;;;;;;;;;;;;;;;;5026791;28;20652;-62
2023/10/22 02:35:51;;;;;;;;;;;;;;;;;;5026690;28;20059;-63
2023/10/22 02:38:19;;;;;;;;;;;;;;;;;;5023733;28;21822;-64
2023/10/22 02:40:45;;;;;;;;;;;;;;;;;;5024578;28;19924;-63
2023/10/22 02:43:12;;;;;;;;;;;;;;;;;;5007209;28;19927;-62
2023/10/22 02:45:38;;;;;;;;;;;;;;;;;;5023603;28;19917;-67
2023/10/22 02:48:03;;;;;;;;;;;;;;;;;;5031250;28;19925;-66
2023/10/22 02:50:28;;;;;;;;;;;;;;;;;;5022839;28;19967;-65
2023/10/22 02:52:55;;;;;;;;;;;;;;;;;;5014135;28;20020;-66
2023/10/22 02:55:22;;;;;;;;;;;;;;;;;;5014414;28;20003;-65
2023/10/22 02:57:47;;;;;;;;;;;;;;;;;;5014882;28;19965;-64
2023/10/22 03:00:13;;;;;;;;;;;;;;;;;;5023907;28;21679;-64
2023/10/22 03:02:41;;;;;;;;;;;;;;;;;;5014295;28;19916;-65
2023/10/22 03:05:06;;;;;;;;;;;;;;;;;;5021104;28;19943;-67
2023/10/22 03:07:31;;;;;;;;;;;;;;;;;;5024058;28;20879;-65
2023/10/22 03:10:00;;;;;;;;;;;;;;;;;;5024566;28;19917;-64
2023/10/22 03:12:25;;;;;;;;;;;;;;;;;;5023542;28;20433;-63
2023/10/22 03:14:50;;;;;;;;;;;;;;;;;;5025506;28;20348;-67
2023/10/22 03:17:16;;;;;;;;;;;;;;;;;;5030260;28;19946;-66
2023/10/22 03:19:44;;;;;;;;;;;;;;;;;;5012258;28;20184;-65
2023/10/22 03:22:10;;;;;;;;;;;;;;;;;;5022553;28;19917;-68
2023/10/22 03:24:36;;;;;;;;;;;;;;;;;;5025556;28;20801;-68
2023/10/22 03:27:04;;;;;;;;;;;;;;;;;;5022332;28;20412;-67
2023/10/22 03:29:29;;;;;;;;;;;;;;;;;;5025896;28;19913;-66
2023/10/22 03:31:54;;;;;;;;;;;;;;;;;;5023109;28;19966;-67
2023/10/22 03:34:20;;;;;;;;;;;;;;;;;;5007302;28;20592;-67
2023/10/22 03:36:46;;;;;;;;;;;;;;;;;;5023613;28;19917;-68
2023/10/22 03:39:13;;;;;;;;;;;;;;;;;;5031178;28;19956;-66
2023/10/22 03:41:39;;;;;;;;;;;;;;;;;;5010608;28;19925;-70
2023/10/22 03:44:05;;;;;;;;;;;;;;;;;;5024344;28;19921;-66
2023/10/22 03:46:30;;;;;;;;;;;;;;;;;;5024155;28;21089;-66
2023/10/22 03:48:57;;;;;;;;;;;;;;;;;;5014856;28;19921;-67
2023/10/22 03:51:22;;;;;;;;;;;;;;;;;;5008347;28;19921;-67
2023/10/22 03:53:48;;;;;;;;;;;;;;;;;;5010769;28;20614;-66
2023/10/22 03:56:14;;;;;;;;;;;;;;;;;;5037545;28;19921;-66
2023/10/22 03:58:39;;;;;;;;;;;;;;;;;;5024523;28;20260;-66
2023/10/22 04:01:04;;;;;;;;;;;;;;;;;;5021997;28;19940;-67
2023/10/22 04:03:32;;;;;;;;;;;;;;;;;;5022145;28;19924;-68
2023/10/22 04:05:57;;;;;;;;;;;;;;;;;;5009336;28;21552;-69
2023/10/22 04:08:23;;;;;;;;;;;;;;;;;;5023679;28;19928;-70
2023/10/22 04:10:48;;;;;;;;;;;;;;;;;;5022028;28;20054;-68
2023/10/22 04:13:14;;;;;;;;;;;;;;;;;;5009485;28;19923;-68
2023/10/22 04:15:39;;;;;;;;;;;;;;;;;;5038470;28;19970;-68
2023/10/22 04:18:07;;;;;;;;;;;;;;;;;;5025016;28;20466;-70
2023/10/22 04:20:33;;;;;;;;;;;;;;;;;;5022612;28;20008;-72
2023/10/22 04:23:04;;;;;;;;;;;;;;;;;;5032023;28;20047;-71
2023/10/22 04:25:29;;;;;;;;;;;;;;;;;;5024208;28;19917;-71
2023/10/22 04:27:57;;;;;;;;;;;;;;;;;;5016724;28;19972;-71
2023/10/22 04:30:25;;;;;;;;;;;;;;;;;;5022622;28;20012;-69
2023/10/22 04:32:53;;;;;;;;;;;;;;;;;;5012847;28;19943;-68
2023/10/22 04:35:19;;;;;;;;;;;;;;;;;;5021159;28;19928;-73
2023/10/22 04:37:45;;;;;;;;;;;;;;;;;;5025311;28;19935;-67
2023/10/22 04:40:10;;;;;;;;;;;;;;;;;;5010730;28;19927;-68
2023/10/22 04:42:36;;;;;;;;;;;;;;;;;;5010189;28;19920;-67
2023/10/22 04:45:04;;;;;;;;;;;;;;;;;;5022267;28;19924;-66
2023/10/22 04:50:24;;;;;;;;;;;;;;;;;;5026946;28;19928;-67
2023/10/22 04:52:49;;;;;;;;;;;;;;;;;;5011150;28;19917;-68
2023/10/22 04:55:15;;;;;;;;;;;;;;;;;;5009990;28;19988;-67
2023/10/22 04:57:40;;;;;;;;;;;;;;;;;;5018853;28;19920;-66
2023/10/22 05:00:07;;;;;;;;;;;;;;;;;;5022860;28;19971;-64
2023/10/22 05:02:32;;;;;;;;;;;;;;;;;;5011448;28;20534;-66
2023/10/22 05:05:04;;;;;;;;;;;;;;;;;;5021820;28;19924;-63
2023/10/22 05:07:29;;;;;;;;;;;;;;;;;;5022071;28;20480;-64
2023/10/22 05:09:57;;;;;;;;;;;;;;;;;;5009290;28;19984;-65
2023/10/22 05:12:25;;;;;;;;;;;;;;;;;;5026061;28;20012;-66
2023/10/22 05:14:51;;;;;;;;;;;;;;;;;;5008326;28;20336;-66
2023/10/22 05:17:16;;;;;;;;;;;;;;;;;;5022491;28;19927;-66
2023/10/22 05:19:43;;;;;;;;;;;;;;;;;;5011588;28;19945;-66
2023/10/22 05:22:08;;;;;;;;;;;;;;;;;;5023086;28;19921;-64
2023/10/22 05:24:33;;;;;;;;;;;;;;;;;;5026994;28;20797;-66
2023/10/22 05:26:58;;;;;;;;;;;;;;;;;;5011147;28;19916;-67
2023/10/22 05:29:24;;;;;;;;;;;;;;;;;;5023471;28;20359;-66
2023/10/22 05:31:49;;;;;;;;;;;;;;;;;;5021030;28;19967;-66
2023/10/22 05:34:14;;;;;;;;;;;;;;;;;;5011861;28;20007;-65
2023/10/22 05:36:40;;;;;;;;;;;;;;;;;;5028861;28;19952;-65
2023/10/22 05:39:05;;;;;;;;;;;;;;;;;;5025764;28;19917;-64
2023/10/22 05:41:30;;;;;;;;;;;;;;;;;;5008121;28;19978;-64
2023/10/22 05:43:56;;;;;;;;;;;;;;;;;;5022522;28;19984;-65
2023/10/22 05:46:21;;;;;;;;;;;;;;;;;;5025295;28;19920;-65
2023/10/22 05:48:49;;;;;;;;;;;;;;;;;;5012396;28;19971;-64
2023/10/22 05:51:14;;;;;;;;;;;;;;;;;;5024409;28;20070;-65
2023/10/22 05:53:44;;;;;;;;;;;;;;;;;;5024304;28;19920;-64
2023/10/22 05:56:12;;;;;;;;;;;;;;;;;;5028068;28;19925;-65
2023/10/22 05:58:38;;;;;;;;;;;;;;;;;;5030125;28;19927;-65
2023/10/22 06:01:04;;;;;;;;;;;;;;;;;;5027036;28;20446;-64
2023/10/22 06:03:29;;;;;;;;;;;;;;;;;;5029631;28;20036;-64
2023/10/22 06:05:54;;;;;;;;;;;;;;;;;;5023168;28;19948;-63
2023/10/22 06:08:20;;;;;;;;;;;;;;;;;;5015713;28;19971;-66
2023/10/22 06:10:48;;;;;;;;;;;;;;;;;;5026826;28;19921;-65
2023/10/22 06:13:28;;;;;;;;;;;;;;;;;;5024876;28;20152;-65
2023/10/22 06:16:00;;;;;;;;;;;;;;;;;;5015133;28;20268;-63
2023/10/22 06:18:41;;;;;;;;;;;;;;;;;;5022316;28;19921;-65
2023/10/22 06:21:09;;;;;;;;;;;;;;;;;;5026961;28;19920;-64
2023/10/22 06:23:35;;;;;;;;;;;;;;;;;;5026853;28;20840;-63
2023/10/22 06:26:01;;;;;;;;;;;;;;;;;;5024978;28;20309;-64
2023/10/22 06:28:26;;;;;;;;;;;;;;;;;;5024689;28;20289;-63
2023/10/22 06:30:51;;;;;;;;;;;;;;;;;;5025847;28;19918;-64
2023/10/22 06:33:19;;;;;;;;;;;;;;;;;;5016532;28;19927;-64
2023/10/22 06:35:45;;;;;;;;;;;;;;;;;;5024431;28;19917;-65
2023/10/22 06:38:10;;;;;;;;;;;;;;;;;;5024144;28;20608;-63
2023/10/22 06:40:36;;;;;;;;;;;;;;;;;;5033703;28;19913;-64
2023/10/22 06:43:02;;;;;;;;;;;;;;;;;;5022412;28;19950;-64
2023/10/22 06:45:27;;;;;;;;;;;;;;;;;;5027529;28;19998;-64
2023/10/22 06:47:56;;;;;;;;;;;;;;;;;;5025610;28;20027;-64
2023/10/22 06:50:31;;;;;;;;;;;;;;;;;;;;;
2023/10/22 06:53:03;;;;;;;;;;;;;;;;;;5022325;28;19920;-65
2023/10/22 06:55:29;;;;;;;;;;;;;;;;;;5007589;28;19924;-64
2023/10/22 06:57:54;;;;;;;;;;;;;;;;;;5027253;28;19917;-65
2023/10/22 07:00:20;;;;;;;;;;;;;;;;;;5026924;28;19924;-65
2023/10/22 07:02:46;;;;;;;;;;;;;;;;;;5024687;28;20321;-66
2023/10/22 07:05:11;;;;;;;;;;;;;;;;;;5020993;28;20732;-65
2023/10/22 07:07:41;;;;;;;;;;;;;;;;;;5004369;28;19944;-67
2023/10/22 07:10:10;;;;;;;;;;;;;;;;;;5008777;28;20023;-66
2023/10/22 07:12:35;;;;;;;;;;;;;;;;;;5023867;28;19997;-65
2023/10/22 07:15:03;;;;;;;;;;;;;;;;;;5020711;28;19921;-64
2023/10/22 07:17:28;;;;;;;;;;;;;;;;;;5028039;28;19924;-65
2023/10/22 07:19:53;;;;;;;;;;;;;;;;;;5030093;28;20637;-67
2023/10/22 07:22:22;;;;;;;;;;;;;;;;;;5022862;28;19995;-67
2023/10/22 07:24:47;;;;;;;;;;;;;;;;;;5037945;28;19924;-66
2023/10/22 07:27:12;;;;;;;;;;;;;;;;;;5023390;28;20980;-67
2023/10/22 07:29:38;;;;;;;;;;;;;;;;;;5022794;28;20003;-65
2023/10/22 07:32:03;;;;;;;;;;;;;;;;;;5010604;28;20576;-66
2023/10/22 07:34:40;;;;;;;;;;;;;;;;;;5020265;28;19927;-67
2023/10/22 07:37:05;;;;;;;;;;;;;;;;;;5022566;28;20431;-69
2023/10/22 07:42:19;;;;;;;;;;;;;;;;;;5022759;28;20006;-67
2023/10/22 07:44:44;;;;;;;;;;;;;;;;;;5021649;28;20443;-67
2023/10/22 07:47:10;;;;;;;;;;;;;;;;;;5009403;28;20276;-67
2023/10/22 07:49:35;;;;;;;;;;;;;;;;;;5023913;28;19920;-64
2023/10/22 07:52:03;;;;;;;;;;;;;;;;;;5023826;28;19971;-68
2023/10/22 07:54:33;;;;;;;;;;;;;;;;;;5020083;28;19917;-64
2023/10/22 07:57:01;;;;;;;;;;;;;;;;;;5010220;28;20904;-65
2023/10/22 07:59:26;;;;;;;;;;;;;;;;;;5009044;28;20335;-64
2023/10/22 08:01:52;;;;;;;;;;;;;;;;;;5007006;28;19969;-63
2023/10/22 08:04:17;;;;;;;;;;;;;;;;;;5005873;28;20744;-63
2023/10/22 08:06:42;;;;;;;;;;;;;;;;;;5025685;28;20287;-65
2023/10/22 08:09:08;;;;;;;;;;;;;;;;;;5022029;28;19968;-63
2023/10/22 08:11:33;;;;;;;;;;;;;;;;;;5022145;28;19928;-64
2023/10/22 08:13:58;;;;;;;;;;;;;;;;;;5018774;28;20269;-65
2023/10/22 08:16:26;;;;;;;;;;;;;;;;;;5026307;28;20387;-64
2023/10/22 08:18:52;;;;;;;;;;;;;;;;;;5022291;28;19921;-63
2023/10/22 08:21:21;;;;;;;;;;;;;;;;;;5021759;28;19921;-64
2023/10/22 08:23:47;;;;;;;;;;;;;;;;;;5017991;28;20460;-65
2023/10/22 08:26:13;;;;;;;;;;;;;;;;;;5005073;28;20018;-64
2023/10/22 08:28:38;;;;;;;;;;;;;;;;;;5020739;28;20023;-64
2023/10/22 08:31:03;;;;;;;;;;;;;;;;;;5009374;28;20041;-64
2023/10/22 08:33:31;;;;;;;;;;;;;;;;;;5021261;28;20407;-64
2023/10/22 08:35:59;;;;;;;;;;;;;;;;;;5011405;28;19917;-64
2023/10/22 08:38:26;;;;;;;;;;;;;;;;;;5023269;28;19921;-63
2023/10/22 08:40:52;;;;;;;;;;;;;;;;;;5018384;28;19917;-63
2023/10/22 08:43:17;;;;;;;;;;;;;;;;;;5018766;28;19952;-63
2023/10/22 08:45:45;;;;;;;;;;;;;;;;;;5023625;28;19921;-64
2023/10/22 08:48:11;;;;;;;;;;;;;;;;;;5024712;28;19928;-64
2023/10/22 08:50:37;;;;;;;;;;;;;;;;;;5022434;28;19927;-65
2023/10/22 08:53:02;;;;;;;;;;;;;;;;;;5001964;28;20149;-64
2023/10/22 08:55:30;;;;;;;;;;;;;;;;;;5020359;28;19921;-64
2023/10/22 08:57:55;;;;;;;;;;;;;;;;;;5017984;28;20387;-64
2023/10/22 09:00:21;;;;;;;;;;;;;;;;;;5008874;28;20392;-65
2023/10/22 09:02:49;;;;;;;;;;;;;;;;;;5016336;28;20119;-65
2023/10/22 09:05:14;;;;;;;;;;;;;;;;;;5018992;28;19916;-65
2023/10/22 09:07:39;;;;;;;;;;;;;;;;;;5021833;28;20342;-64
2023/10/22 09:10:05;;;;;;;;;;;;;;;;;;5019329;28;20313;-66
2023/10/22 09:12:30;;;;;;;;;;;;;;;;;;5023749;28;19975;-64
2023/10/22 09:14:55;;;;;;;;;;;;;;;;;;5019192;28;19925;-65
2023/10/22 09:17:21;;;;;;;;;;;;;;;;;;5019904;28;19928;-65
2023/10/22 09:19:51;;;;;;;;;;;;;;;;;;5020835;28;19921;-67
2023/10/22 09:22:16;;;;;;;;;;;;;;;;;;5019401;28;20544;-71
2023/10/22 09:24:42;;;;;;;;;;;;;;;;;;5021742;28;20008;-66
2023/10/22 09:27:07;;;;;;;;;;;;;;;;;;5022991;28;19924;-65
2023/10/22 09:29:32;;;;;;;;;;;;;;;;;;5025508;28;20295;-67
2023/10/22 09:31:59;;;;;;;;;;;;;;;;;;5027464;28;19940;-67
2023/10/22 09:34:25;;;;;;;;;;;;;;;;;;5005478;28;19913;-66
2023/10/22 09:36:50;;;;;;;;;;;;;;;;;;5026056;28;19940;-68
2023/10/22 09:39:16;;;;;;;;;;;;;;;;;;5024612;28;20336;-67
2023/10/22 09:41:41;;;;;;;;;;;;;;;;;;5014761;28;19987;-70
2023/10/22 09:44:07;;;;;;;;;;;;;;;;;;5026787;28;19921;-68
2023/10/22 09:46:33;;;;;;;;;;;;;;;;;;5027882;28;19959;-65
2023/10/22 09:48:59;;;;;;;;;;;;;;;;;;5026408;28;20390;-68
2023/10/22 09:51:24;;;;;;;;;;;;;;;;;;5028459;28;19917;-67
2023/10/22 09:53:49;;;;;;;;;;;;;;;;;;5011877;28;19994;-74
2023/10/22 09:56:17;;;;;;;;;;;;;;;;;;5008617;28;19956;-69
2023/10/22 09:58:42;;;;;;;;;;;;;;;;;;5004630;28;20672;-68
2023/10/22 10:01:09;;;;;;;;;;;;;;;;;;5008755;28;19926;-69
2023/10/22 10:03:34;;;;;;;;;;;;;;;;;;5024073;28;19925;-68
2023/10/22 10:05:59;;;;;;;;;;;;;;;;;;5022347;28;19943;-68
2023/10/22 10:08:25;;;;;;;;;;;;;;;;;;5023056;28;20331;-69
2023/10/22 10:10:51;;;;;;;;;;;;;;;;;;5025283;28;20021;-69
2023/10/22 10:13:16;;;;;;;;;;;;;;;;;;5008025;28;19943;-67
2023/10/22 10:15:42;;;;;;;;;;;;;;;;;;5025947;28;19997;-70
2023/10/22 10:18:07;;;;;;;;;;;;;;;;;;5027375;28;19921;-67
2023/10/22 10:20:35;;;;;;;;;;;;;;;;;;5026474;28;20095;-68
2023/10/22 10:23:02;;;;;;;;;;;;;;;;;;5023162;28;19923;-66
2023/10/22 10:25:28;;;;;;;;;;;;;;;;;;5029276;28;19921;-67
2023/10/22 10:27:54;;;;;;;;;;;;;;;;;;5020336;28;19971;-67
2023/10/22 10:30:20;;;;;;;;;;;;;;;;;;5023306;28;19924;-66
2023/10/22 10:32:46;;;;;;;;;;;;;;;;;;5022331;28;20795;-67
2023/10/22 10:35:11;;;;;;;;;;;;;;;;;;5006189;28;19920;-66
2023/10/22 10:37:39;;;;;;;;;;;;;;;;;;5023229;28;19924;-66
2023/10/22 10:40:10;;;;;;;;;;;;;;;;;;5020921;28;19962;-65
2023/10/22 10:42:38;;;;;;;;;;;;;;;;;;5021571;28;20011;-67
2023/10/22 10:45:04;;;;;;;;;;;;;;;;;;5025258;28;20015;-66
2023/10/22 10:47:31;;;;;;;;;;;;;;;;;;5025274;28;19951;-67
2023/10/22 10:50:02;;;;;;;;;;;;;;;;;;5013192;28;19928;-65
2023/10/22 10:52:31;;;;;;;;;;;;;;;;;;5026143;28;19920;-66
2023/10/22 10:54:59;;;;;;;;;;;;;;;;;;5018868;28;19971;-65
2023/10/22 10:57:28;;;;;;;;;;;;;;;;;;5021665;28;19920;-67
2023/10/22 10:59:56;;;;;;;;;;;;;;;;;;5022231;28;19971;-66
2023/10/22 11:02:24;;;;;;;;;;;;;;;;;;5021873;28;19917;-66
2023/10/22 11:04:49;;;;;;;;;;;;;;;;;;5005894;28;19923;-66
2023/10/22 11:07:14;;;;;;;;;;;;;;;;;;5011893;28;20920;-66
2023/10/22 11:09:40;;;;;;;;;;;;;;;;;;5021642;28;20394;-65
2023/10/22 11:12:08;;;;;;;;;;;;;;;;;;5025442;28;19928;-66
2023/10/22 11:14:33;;;;;;;;;;;;;;;;;;5024649;28;19924;-66
2023/10/22 11:16:59;;;;;;;;;;;;;;;;;;5024250;28;20409;-66
2023/10/22 11:19:24;;;;;;;;;;;;;;;;;;5015535;28;20008;-64
2023/10/22 11:21:49;;;;;;;;;;;;;;;;;;5012231;28;19946;-65
2023/10/22 11:24:17;;;;;;;;;;;;;;;;;;5023767;28;20413;-64
2023/10/22 11:26:43;;;;;;;;;;;;;;;;;;5007710;28;19920;-66
2023/10/22 11:29:08;;;;;;;;;;;;;;;;;;5021933;28;19939;-65
2023/10/22 11:31:33;;;;;;;;;;;;;;;;;;5023385;28;20034;-65
2023/10/22 11:33:59;;;;;;;;;;;;;;;;;;5021303;28;20434;-64
2023/10/22 11:36:24;;;;;;;;;;;;;;;;;;5025491;28;19920;-66
2023/10/22 11:38:50;;;;;;;;;;;;;;;;;;5013541;28;19917;-65
2023/10/22 11:41:18;;;;;;;;;;;;;;;;;;5011065;28;19917;-65
2023/10/22 11:43:43;;;;;;;;;;;;;;;;;;5021211;28;20430;-66
2023/10/22 11:46:08;;;;;;;;;;;;;;;;;;5027319;28;20011;-65
2023/10/22 11:48:37;;;;;;;;;;;;;;;;;;5020904;28;19974;-65
2023/10/22 11:51:04;;;;;;;;;;;;;;;;;;5024767;28;19921;-67
2023/10/22 11:53:29;;;;;;;;;;;;;;;;;;5023639;28;19920;-64
2023/10/22 11:55:54;;;;;;;;;;;;;;;;;;5020929;28;19978;-64
2023/10/22 11:58:20;;;;;;;;;;;;;;;;;;5020592;28;19920;-63
2023/10/22 12:00:47;;;;;;;;;;;;;;;;;;5022010;28;20482;-64
2023/10/22 12:03:13;;;;;;;;;;;;;;;;;;5006256;28;19921;-64
2023/10/22 12:05:38;;;;;;;;;;;;;;;;;;5020405;28;20462;-64
2023/10/22 12:08:06;;;;;;;;;;;;;;;;;;5023608;28;20292;-65
2023/10/22 12:10:33;;;;;;;;;;;;;;;;;;5020757;28;19956;-65
2023/10/22 12:12:59;;;;;;;;;;;;;;;;;;5022802;28;20290;-65
2023/10/22 12:15:25;;;;;;;;;;;;;;;;;;5027761;28;19917;-65
2023/10/22 12:17:50;;;;;;;;;;;;;;;;;;5006098;28;20110;-64
2023/10/22 12:20:16;;;;;;;;;;;;;;;;;;5019221;28;19917;-64
2023/10/22 12:22:44;;;;;;;;;;;;;;;;;;5010125;28;19928;-64
2023/10/22 12:25:11;;;;;;;;;;;;;;;;;;5029553;28;19917;-64
2023/10/22 12:27:40;;;;;;;;;;;;;;;;;;5022940;28;19981;-64
2023/10/22 12:30:07;;;;;;;;;;;;;;;;;;5028276;28;19917;-64
2023/10/22 12:32:33;;;;;;;;;;;;;;;;;;5011586;28;19940;-64
2023/10/22 12:34:59;;;;;;;;;;;;;;;;;;5019916;28;19987;-64
2023/10/22 12:37:24;;;;;;;;;;;;;;;;;;5020602;28;19928;-65
2023/10/22 12:39:50;;;;;;;;;;;;;;;;;;5022290;28;19931;-66
2023/10/22 12:42:18;;;;;;;;;;;;;;;;;;5017479;28;19986;-65
2023/10/22 12:44:43;;;;;;;;;;;;;;;;;;5008881;28;19921;-66
2023/10/22 12:47:12;;;;;;;;;;;;;;;;;;5022280;28;20032;-65
2023/10/22 12:49:41;;;;;;;;;;;;;;;;;;5021139;28;20483;-65
2023/10/22 12:52:07;;;;;;;;;;;;;;;;;;5018827;28;19921;-65
2023/10/22 12:54:32;;;;;;;;;;;;;;;;;;5023186;28;19921;-67
2023/10/22 12:56:58;;;;;;;;;;;;;;;;;;5020554;28;19960;-66
2023/10/22 12:59:26;;;;;;;;;;;;;;;;;;5009102;28;20052;-64
2023/10/22 13:01:52;;;;;;;;;;;;;;;;;;5017270;28;19921;-67
2023/10/22 13:04:20;;;;;;;;;;;;;;;;;;5019564;28;19971;-66
2023/10/22 13:06:45;;;;;;;;;;;;;;;;;;5021719;28;20058;-65
2023/10/22 13:09:14;;;;;;;;;;;;;;;;;;5002611;28;21468;-64
2023/10/22 13:11:40;;;;;;;;;;;;;;;;;;5023141;28;19933;-67
2023/10/22 13:14:05;;;;;;;;;;;;;;;;;;5009633;28;19921;-65
2023/10/22 13:16:30;;;;;;;;;;;;;;;;;;5008594;28;19928;-63
2023/10/22 13:18:55;;;;;;;;;;;;;;;;;;5022714;28;20419;-65
2023/10/22 13:21:21;;;;;;;;;;;;;;;;;;5022194;28;19921;-64
2023/10/22 13:23:46;;;;;;;;;;;;;;;;;;5016168;28;20002;-64
2023/10/22 13:26:11;;;;;;;;;;;;;;;;;;5019921;28;19916;-65
2023/10/22 13:28:37;;;;;;;;;;;;;;;;;;5021815;28;20599;-66
2023/10/22 13:31:02;;;;;;;;;;;;;;;;;;5023933;28;19931;-66
2023/10/22 13:33:31;;;;;;;;;;;;;;;;;;5024191;28;19929;-66
2023/10/22 13:35:58;;;;;;;;;;;;;;;;;;5019323;28;19944;-66
2023/10/22 13:38:23;;;;;;;;;;;;;;;;;;5021741;28;19936;-66
2023/10/22 13:40:52;;;;;;;;;;;;;;;;;;5021024;28;20330;-64
2023/10/22 13:43:17;;;;;;;;;;;;;;;;;;5023971;28;19920;-65
2023/10/22 13:45:42;;;;;;;;;;;;;;;;;;5022120;28;19943;-65
2023/10/22 13:48:08;;;;;;;;;;;;;;;;;;5012691;28;19924;-65
2023/10/22 13:50:36;;;;;;;;;;;;;;;;;;5019617;28;20019;-65
2023/10/22 13:53:09;;;;;;;;;;;;;;;;;;5022911;28;20247;-64
2023/10/22 13:55:37;;;;;;;;;;;;;;;;;;5006332;28;19921;-66
2023/10/22 13:58:05;;;;;;;;;;;;;;;;;;5011513;28;19923;-64
2023/10/22 14:00:30;;;;;;;;;;;;;;;;;;5022357;28;20152;-65
2023/10/22 14:02:55;;;;;;;;;;;;;;;;;;5016535;28;19917;-63
2023/10/22 14:05:21;;;;;;;;;;;;;;;;;;5022423;28;20051;-66
2023/10/22 14:07:49;;;;;;;;;;;;;;;;;;5019628;28;19929;-65
2023/10/22 14:10:15;;;;;;;;;;;;;;;;;;5022856;28;19931;-64
2023/10/22 14:12:48;;;;;;;;;;;;;;;;;;5024460;28;19924;-65
2023/10/22 14:15:18;;;;;;;;;;;;;;;;;;5022623;28;19952;-65
2023/10/22 14:17:43;;;;;;;;;;;;;;;;;;5022508;28;20381;-66
2023/10/22 14:20:13;;;;;;;;;;;;;;;;;;5028262;28;20031;-65
2023/10/22 14:22:39;;;;;;;;;;;;;;;;;;5024234;28;21899;-65
2023/10/22 14:25:04;;;;;;;;;;;;;;;;;;5005389;28;19921;-66
2023/10/22 14:27:31;;;;;;;;;;;;;;;;;;5024152;28;19932;-66
2023/10/22 14:29:56;;;;;;;;;;;;;;;;;;5023792;28;20464;-66
2023/10/22 14:32:22;;;;;;;;;;;;;;;;;;5023677;28;19925;-65
2023/10/22 14:34:47;;;;;;;;;;;;;;;;;;5026105;28;19923;-66
2023/10/22 14:37:12;;;;;;;;;;;;;;;;;;5022277;28;19927;-65
2023/10/22 14:39:38;;;;;;;;;;;;;;;;;;5024249;28;19920;-66
2023/10/22 14:42:04;;;;;;;;;;;;;;;;;;5025789;28;19928;-65
2023/10/22 14:44:29;;;;;;;;;;;;;;;;;;5013119;28;19978;-66
2023/10/22 14:46:57;;;;;;;;;;;;;;;;;;5024018;28;19921;-65
2023/10/22 14:49:28;;;;;;;;;;;;;;;;;;5023452;28;20341;-66
2023/10/22 14:51:53;;;;;;;;;;;;;;;;;;5021414;28;19921;-66
2023/10/22 14:54:21;;;;;;;;;;;;;;;;;;5023376;28;21602;-66
2023/10/22 14:56:47;;;;;;;;;;;;;;;;;;5021908;28;19920;-66
2023/10/22 14:59:12;;;;;;;;;;;;;;;;;;5012219;28;19927;-67
2023/10/22 15:01:40;;;;;;;;;;;;;;;;;;5031793;28;19920;-66
2023/10/22 15:04:08;;;;;;;;;;;;;;;;;;5027315;28;19924;-66
2023/10/22 15:06:33;;;;;;;;;;;;;;;;;;5023584;28;19964;-65
2023/10/22 15:09:11;;;;;;;;;;;;;;;;;;5022967;28;19936;-65
2023/10/22 15:11:38;;;;;;;;;;;;;;;;;;5039436;28;19917;-66
2023/10/22 15:14:03;;;;;;;;;;;;;;;;;;5026822;28;20404;-66
2023/10/22 15:16:29;;;;;;;;;;;;;;;;;;5021481;28;19921;-66
2023/10/22 15:18:54;;;;;;;;;;;;;;;;;;5024812;28;19952;-67
2023/10/22 15:21:19;;;;;;;;;;;;;;;;;;5025277;28;20471;-66
2023/10/22 15:23:47;;;;;;;;;;;;;;;;;;5023686;28;19966;-66
2023/10/22 15:26:15;;;;;;;;;;;;;;;;;;5031669;28;19920;-66
2023/10/22 15:28:40;;;;;;;;;;;;;;;;;;5025694;28;20009;-68
2023/10/22 15:31:06;;;;;;;;;;;;;;;;;;5023214;28;20067;-67
2023/10/22 15:33:31;;;;;;;;;;;;;;;;;;5005327;28;19921;-66
2023/10/22 15:36:00;;;;;;;;;;;;;;;;;;5009892;28;20260;-66
2023/10/22 15:41:17;;;;;;;;;;;;;;;;;;5022956;28;20557;-66
2023/10/22 15:43:42;;;;;;;;;;;;;;;;;;5021966;28;19923;-66
2023/10/22 15:46:07;;;;;;;;;;;;;;;;;;5024015;28;19921;-66
2023/10/22 15:48:33;;;;;;;;;;;;;;;;;;5022852;28;20020;-65
2023/10/22 15:51:00;;;;;;;;;;;;;;;;;;5012115;28;20371;-65
2023/10/22 15:53:26;;;;;;;;;;;;;;;;;;5024110;28;19924;-65
2023/10/22 15:55:51;;;;;;;;;;;;;;;;;;5011260;28;19921;-66
2023/10/22 15:58:19;;;;;;;;;;;;;;;;;;5021420;28;20436;-65
2023/10/22 16:00:44;;;;;;;;;;;;;;;;;;5023861;28;19921;-66
2023/10/22 16:03:09;;;;;;;;;;;;;;;;;;5001929;28;20027;-65
2023/10/22 16:05:35;;;;;;;;;;;;;;;;;;5037501;28;19998;-65
2023/10/22 16:08:02;;;;;;;;;;;;;;;;;;5021486;28;19963;-65
2023/10/22 16:10:28;;;;;;;;;;;;;;;;;;5021110;28;20735;-66
2023/10/22 16:12:53;;;;;;;;;;;;;;;;;;5025009;28;19921;-66
2023/10/22 16:15:20;;;;;;;;;;;;;;;;;;5012391;28;19936;-66
2023/10/22 16:17:45;;;;;;;;;;;;;;;;;;5007516;28;19921;-65
2023/10/22 16:20:11;;;;;;;;;;;;;;;;;;5023349;28;19940;-66
2023/10/22 16:22:36;;;;;;;;;;;;;;;;;;5022373;28;19951;-66
2023/10/22 16:25:01;;;;;;;;;;;;;;;;;;5020761;28;19920;-66
2023/10/22 16:27:26;;;;;;;;;;;;;;;;;;5023518;28;19921;-66
2023/10/22 16:29:55;;;;;;;;;;;;;;;;;;5025598;28;20034;-66
2023/10/22 16:32:20;;;;;;;;;;;;;;;;;;5019433;28;19967;-66
2023/10/22 16:34:46;;;;;;;;;;;;;;;;;;5002336;28;20109;-65
2023/10/22 16:37:11;;;;;;;;;;;;;;;;;;5007297;28;19917;-66
2023/10/22 16:39:36;;;;;;;;;;;;;;;;;;5024112;28;19928;-66
2023/10/22 16:42:01;;;;;;;;;;;;;;;;;;5019440;28;20376;-67
2023/10/22 16:44:27;;;;;;;;;;;;;;;;;;5025929;28;19920;-67
2023/10/22 16:46:52;;;;;;;;;;;;;;;;;;5023190;28;19928;-67
2023/10/22 16:49:18;;;;;;;;;;;;;;;;;;5020440;28;19932;-65